createdAt,value
2018-05-04T00:00:45.327Z,7.30
2018-05-04T00:03:47.336Z,8.63
2018-05-04T00:06:49.340Z,7.80
2018-05-04T00:09:51.373Z,8.30
2018-05-04T00:12:53.364Z,7.70
2018-05-04T00:15:55.365Z,7.90
2018-05-04T00:18:57.339Z,8.70
2018-05-04T00:22:00.149Z,8.23
2018-05-04T00:25:02.158Z,7.87
2018-05-04T00:28:04.186Z,9.37
2018-05-04T00:31:06.168Z,8.33
2018-05-04T00:34:08.177Z,8.33
2018-05-04T00:37:11.074Z,8.53
2018-05-04T00:40:13.091Z,9.27
2018-05-04T00:43:15.117Z,9.10
2018-05-04T00:46:17.294Z,8.93
2018-05-04T00:49:19.311Z,9.70
2018-05-04T00:52:21.597Z,8.63
2018-05-04T00:55:23.606Z,10.23
2018-05-04T00:58:25.663Z,8.50
2018-05-04T01:01:27.706Z,8.30
2018-05-04T01:04:29.735Z,8.70
2018-05-04T01:07:31.762Z,8.40
2018-05-04T01:10:33.758Z,10.03
2018-05-04T01:13:35.783Z,9.80
2018-05-04T01:16:38.832Z,9.77
2018-05-04T01:19:41.216Z,8.70
2018-05-04T01:22:43.192Z,10.00
2018-05-04T01:25:45.264Z,10.20
2018-05-04T01:28:47.246Z,10.03
2018-05-04T01:31:49.255Z,9.03
2018-05-04T01:34:51.298Z,9.20
2018-05-04T01:37:53.302Z,9.20
2018-05-04T01:40:56.054Z,9.43
2018-05-04T01:43:58.058Z,10.40
2018-05-04T01:47:00.251Z,9.60
2018-05-04T01:50:03.549Z,9.07
2018-05-04T01:53:06.447Z,10.40
2018-05-04T01:56:08.915Z,8.77
2018-05-04T01:59:10.947Z,9.87
2018-05-04T02:02:12.949Z,9.73
2018-05-04T02:05:14.918Z,8.20
2018-05-04T02:08:16.936Z,9.93
2018-05-04T02:11:18.930Z,8.60
2018-05-04T02:14:21.729Z,10.67
2018-05-04T02:17:23.711Z,9.33
2018-05-04T02:20:25.689Z,8.63
2018-05-04T02:23:27.707Z,9.00
2018-05-04T02:26:29.703Z,9.20
2018-05-04T02:29:31.696Z,10.33
2018-05-04T02:32:33.716Z,7.83
2018-05-04T02:35:36.824Z,8.87
2018-05-04T02:38:39.309Z,9.53
2018-05-04T02:41:41.885Z,9.47
2018-05-04T02:44:44.676Z,9.10
2018-05-04T02:47:46.673Z,8.77
2018-05-04T02:50:48.684Z,9.07
2018-05-04T02:53:50.661Z,9.87
2018-05-04T02:56:52.855Z,8.30
2018-05-04T02:59:55.743Z,8.40
2018-05-04T03:03:00.026Z,8.80
2018-05-04T03:06:02.108Z,9.07
2018-05-04T03:09:05.402Z,8.97
2018-05-04T03:12:07.459Z,9.87
2018-05-04T03:15:09.452Z,8.47
2018-05-04T03:18:11.554Z,8.90
2018-05-04T03:21:13.617Z,8.77
2018-05-04T03:24:16.956Z,8.57
2018-05-04T03:27:19.947Z,8.10
2018-05-04T03:30:23.918Z,8.50
2018-05-04T03:33:26.182Z,8.00
2018-05-04T03:36:28.478Z,7.90
2018-05-04T03:39:31.371Z,9.00
2018-05-04T03:42:33.773Z,8.37
2018-05-04T03:45:36.059Z,8.97
2018-05-04T03:48:39.621Z,8.90
2018-05-04T03:51:42.474Z,7.63
2018-05-04T03:54:44.711Z,9.33
2018-05-04T03:57:58.994Z,9.13
2018-05-04T04:01:12.981Z,9.70
2018-05-04T04:04:15.821Z,8.87
2018-05-04T04:07:17.894Z,8.50
2018-05-04T04:10:20.239Z,8.03
2018-05-04T04:13:24.327Z,9.03
2018-05-04T04:16:27.184Z,9.37
2018-05-04T04:19:30.201Z,9.00
2018-05-04T04:22:33.173Z,8.27
2018-05-04T04:25:36.234Z,7.63
2018-05-04T04:28:38.823Z,8.20
2018-05-04T04:31:41.644Z,8.57
2018-05-04T04:34:44.457Z,10.33
2018-05-04T04:37:46.471Z,9.20
2018-05-04T04:40:48.584Z,10.00
2018-05-04T04:43:51.360Z,11.00
2018-05-04T04:46:53.506Z,11.30
2018-05-04T04:49:55.514Z,9.80
2018-05-04T04:52:57.519Z,9.10
2018-05-04T04:55:59.518Z,10.70
2018-05-04T04:59:01.512Z,9.10
2018-05-04T05:02:03.542Z,8.77
2018-05-04T05:05:05.531Z,10.87
2018-05-04T05:08:07.559Z,10.00
2018-05-04T05:11:09.710Z,9.30
2018-05-04T05:14:11.711Z,7.90
2018-05-04T05:17:13.697Z,10.30
2018-05-04T05:20:15.707Z,10.27
2018-05-04T05:23:17.705Z,10.30
2018-05-04T05:26:20.528Z,10.57
2018-05-04T05:29:22.531Z,9.13
2018-05-04T05:32:24.560Z,10.60
2018-05-04T05:35:26.537Z,10.57
2018-05-04T05:38:28.948Z,9.23
2018-05-04T05:41:30.929Z,10.67
2018-05-04T05:44:32.955Z,10.90
2018-05-04T05:47:35.731Z,9.60
2018-05-04T05:50:37.720Z,9.47
2018-05-04T05:53:40.585Z,11.43
2018-05-04T05:56:42.588Z,11.13
2018-05-04T05:59:45.885Z,11.63
2018-05-04T06:02:48.509Z,9.23
2018-05-04T06:05:50.677Z,11.10
2018-05-04T06:08:52.982Z,9.60
2018-05-04T06:11:54.970Z,9.40
2018-05-04T06:14:57.767Z,11.10
2018-05-04T06:17:59.790Z,10.23
2018-05-04T06:21:01.873Z,9.50
2018-05-04T06:24:04.681Z,11.67
2018-05-04T06:27:07.490Z,11.50
2018-05-04T06:30:09.467Z,10.43
2018-05-04T06:33:11.534Z,11.80
2018-05-04T06:36:13.584Z,10.83
2018-05-04T06:39:15.846Z,10.57
2018-05-04T06:42:18.723Z,11.37
2018-05-04T06:45:21.489Z,10.50
2018-05-04T06:48:23.492Z,11.43
2018-05-04T06:51:26.273Z,11.80
2018-05-04T06:54:28.298Z,11.60
2018-05-04T06:57:30.313Z,11.50
2018-05-04T07:00:33.108Z,11.37
2018-05-04T07:03:35.389Z,11.10
2018-05-04T07:06:37.390Z,10.67
2018-05-04T07:09:39.447Z,10.60
2018-05-04T07:12:41.449Z,10.90
2018-05-04T07:15:43.444Z,8.97
2018-05-04T07:18:45.453Z,11.20
2018-05-04T07:21:47.452Z,12.10
2018-05-04T07:24:49.671Z,11.20
2018-05-04T07:27:51.674Z,9.87
2018-05-04T07:30:53.663Z,11.30
2018-05-04T07:33:55.689Z,11.50
2018-05-04T07:36:57.720Z,10.57
2018-05-04T07:39:59.733Z,13.07
2018-05-04T07:43:01.773Z,14.30
2018-05-04T07:46:03.851Z,14.80
2018-05-04T07:49:05.836Z,14.10
2018-05-04T07:52:07.849Z,13.80
2018-05-04T07:55:09.892Z,15.13
2018-05-04T07:58:11.992Z,15.47
2018-05-04T08:01:13.962Z,13.77
2018-05-04T08:04:16.566Z,17.40
2018-05-04T08:07:18.551Z,16.00
2018-05-04T08:10:20.604Z,15.40
2018-05-04T08:13:22.666Z,13.97
2018-05-04T08:16:25.548Z,15.90
2018-05-04T08:19:29.276Z,14.03
2018-05-04T08:22:32.118Z,14.77
2018-05-04T08:25:34.232Z,15.83
2018-05-04T08:28:36.283Z,15.10
2018-05-04T08:31:39.087Z,16.13
2018-05-04T08:34:41.363Z,15.67
2018-05-04T08:37:43.381Z,15.83
2018-05-04T08:40:45.391Z,15.80
2018-05-04T08:43:47.493Z,15.60
2018-05-04T08:46:49.581Z,15.10
2018-05-04T08:49:51.522Z,15.77
2018-05-04T08:52:54.662Z,15.20
2018-05-04T08:55:56.665Z,15.67
2018-05-04T08:58:58.639Z,14.40
2018-05-04T09:02:00.810Z,15.10
2018-05-04T09:05:03.697Z,14.33
2018-05-04T09:08:05.780Z,14.07
2018-05-04T09:11:07.792Z,13.23
2018-05-04T09:14:09.801Z,14.30
2018-05-04T09:17:11.783Z,13.70
2018-05-04T09:20:13.785Z,12.80
2018-05-04T09:23:16.575Z,13.70
2018-05-04T09:26:18.775Z,12.80
2018-05-04T09:29:21.938Z,13.73
2018-05-04T09:32:23.975Z,13.73
2018-05-04T09:35:25.949Z,13.73
2018-05-04T09:38:28.100Z,14.60
2018-05-04T09:41:30.131Z,14.33
2018-05-04T09:44:32.934Z,15.00
2018-05-04T09:47:34.964Z,14.87
2018-05-04T09:50:36.955Z,14.47
2018-05-04T09:53:38.924Z,14.50
2018-05-04T09:56:41.576Z,15.00
2018-05-04T09:59:43.933Z,14.60
2018-05-04T10:02:45.989Z,14.37
2018-05-04T10:05:47.994Z,13.63
2018-05-04T10:08:50.012Z,12.80
2018-05-04T10:11:52.091Z,13.80
2018-05-04T10:14:54.126Z,15.20
2018-05-04T10:17:56.174Z,15.27
2018-05-04T10:20:58.179Z,13.97
2018-05-04T10:24:01.026Z,14.77
2018-05-04T10:27:03.713Z,15.10
2018-05-04T10:30:05.741Z,15.07
2018-05-04T10:33:07.783Z,15.07
2018-05-04T10:36:09.777Z,15.10
2018-05-04T10:39:11.745Z,14.33
2018-05-04T10:42:13.769Z,14.10
2018-05-04T10:45:15.799Z,14.50
2018-05-04T10:48:17.831Z,12.43
2018-05-04T10:51:20.599Z,13.20
2018-05-04T10:54:22.644Z,13.50
2018-05-04T10:57:24.724Z,15.60
2018-05-04T11:00:26.780Z,13.57
2018-05-04T11:03:28.808Z,13.30
2018-05-04T11:06:30.818Z,12.50
2018-05-04T11:09:32.885Z,13.73
2018-05-04T11:12:34.890Z,14.47
2018-05-04T11:15:36.954Z,13.30
2018-05-04T11:18:39.029Z,13.33
2018-05-04T11:21:41.131Z,12.43
2018-05-04T11:24:43.144Z,13.20
2018-05-04T11:27:45.167Z,12.60
2018-05-04T11:30:47.228Z,13.43
2018-05-04T11:33:49.273Z,14.30
2018-05-04T11:36:52.041Z,12.63
2018-05-04T11:39:54.059Z,11.80
2018-05-04T11:42:56.295Z,11.93
2018-05-04T11:45:58.311Z,11.20
2018-05-04T11:49:00.959Z,10.20
2018-05-04T11:52:02.963Z,10.60
2018-05-04T11:55:05.055Z,10.33
2018-05-04T11:58:07.850Z,10.27
2018-05-04T12:01:09.966Z,10.60
2018-05-04T12:04:12.757Z,10.00
2018-05-04T12:07:14.744Z,11.30
2018-05-04T12:10:17.153Z,11.03
2018-05-04T12:13:19.180Z,10.80
2018-05-04T12:16:21.246Z,10.10
2018-05-04T12:19:23.242Z,9.53
2018-05-04T12:22:25.267Z,9.80
2018-05-04T12:25:28.028Z,10.20
2018-05-04T12:28:30.059Z,10.30
2018-05-04T12:31:32.301Z,9.93
2018-05-04T12:34:34.394Z,11.00
2018-05-04T12:37:36.407Z,10.93
2018-05-04T12:40:39.172Z,11.40
2018-05-04T12:43:41.964Z,10.07
2018-05-04T12:46:44.125Z,10.37
2018-05-04T12:49:46.177Z,7.97
2018-05-04T12:52:48.468Z,9.50
2018-05-04T12:55:52.333Z,9.87
2018-05-04T12:58:55.646Z,9.37
2018-05-04T13:01:57.804Z,9.90
2018-05-04T13:05:00.647Z,10.13
2018-05-04T13:08:03.619Z,10.60
2018-05-04T13:11:06.627Z,11.03
2018-05-04T13:14:09.272Z,10.07
2018-05-04T13:17:12.183Z,9.20
2018-05-04T13:20:14.941Z,10.93
2018-05-04T13:23:16.993Z,10.70
2018-05-04T13:26:20.856Z,10.57
2018-05-04T13:29:23.193Z,10.77
2018-05-04T13:32:27.481Z,11.70
2018-05-04T13:35:31.062Z,10.33
2018-05-04T13:38:33.375Z,9.67
2018-05-04T13:41:36.418Z,10.07
2018-05-04T13:44:38.476Z,10.20
2018-05-04T13:47:40.699Z,9.60
2018-05-04T13:50:43.033Z,10.30
2018-05-04T13:53:45.014Z,9.23
2018-05-04T13:56:48.509Z,11.50
2018-05-04T13:59:50.828Z,10.40
2018-05-04T14:02:55.324Z,11.03
2018-05-04T14:05:57.472Z,10.03
2018-05-04T14:08:59.528Z,10.87
2018-05-04T14:12:02.460Z,10.93
2018-05-04T14:15:05.237Z,11.00
2018-05-04T14:18:07.261Z,9.90
2018-05-04T14:21:09.332Z,9.20
2018-05-04T14:24:13.639Z,9.30
2018-05-04T14:27:15.691Z,9.10
2018-05-04T14:30:17.776Z,8.97
2018-05-04T14:33:19.861Z,9.57
2018-05-04T14:36:21.962Z,8.57
2018-05-04T14:39:25.881Z,9.23
2018-05-04T14:42:28.628Z,9.50
2018-05-04T14:45:31.415Z,9.27
2018-05-04T14:48:33.426Z,9.30
2018-05-04T14:51:35.656Z,9.23
2018-05-04T14:54:38.445Z,9.50
2018-05-04T14:57:40.463Z,10.63
2018-05-04T15:00:42.538Z,10.00
2018-05-04T15:03:44.626Z,10.70
2018-05-04T15:06:46.635Z,9.80
2018-05-04T15:09:48.642Z,9.63
2018-05-04T15:12:51.291Z,9.97
2018-05-04T15:15:53.427Z,10.17
2018-05-04T15:18:55.589Z,10.97
2018-05-04T15:21:57.663Z,11.83
2018-05-04T15:24:59.871Z,11.60
2018-05-04T15:28:02.028Z,11.83
2018-05-04T15:31:04.991Z,9.63
2018-05-04T15:34:08.231Z,10.70
2018-05-04T15:37:11.291Z,10.30
2018-05-04T15:40:15.141Z,11.37
2018-05-04T15:43:17.172Z,11.20
2018-05-04T15:46:19.949Z,11.27
2018-05-04T15:49:22.144Z,9.73
2018-05-04T15:52:24.186Z,10.97
2018-05-04T15:55:26.160Z,10.60
2018-05-04T15:58:28.190Z,9.40
2018-05-04T16:01:30.276Z,9.33
2018-05-04T16:04:33.961Z,11.07
2018-05-04T16:07:35.990Z,9.07
2018-05-04T16:10:40.184Z,9.23
2018-05-04T16:13:42.245Z,8.37
2018-05-04T16:16:45.268Z,7.83
2018-05-04T16:19:47.329Z,9.40
2018-05-04T16:22:49.542Z,10.00
2018-05-04T16:25:51.605Z,8.50
2018-05-04T16:28:53.639Z,9.40
2018-05-04T16:31:55.694Z,9.40
2018-05-04T16:34:57.701Z,9.17
2018-05-04T16:37:59.729Z,8.97
2018-05-04T16:41:01.785Z,10.00
2018-05-04T16:44:03.826Z,10.43
2018-05-04T16:47:05.859Z,9.53
2018-05-04T16:50:08.675Z,9.87
2018-05-04T16:53:10.709Z,8.63
2018-05-04T16:56:15.284Z,10.07
2018-05-04T16:59:17.303Z,10.33
2018-05-04T17:02:19.355Z,9.80
2018-05-04T17:05:21.351Z,9.20
2018-05-04T17:08:24.273Z,11.60
2018-05-04T17:11:26.309Z,12.80
2018-05-04T17:14:29.111Z,14.70
2018-05-04T17:17:31.230Z,13.50
2018-05-04T17:20:33.292Z,12.33
2018-05-04T17:23:35.328Z,10.67
2018-05-04T17:26:37.343Z,11.07
2018-05-04T17:29:39.363Z,11.40
2018-05-04T17:32:41.539Z,11.47
2018-05-04T17:35:43.538Z,10.70
2018-05-04T17:38:45.557Z,9.90
2018-05-04T17:41:48.385Z,10.53
2018-05-04T17:44:50.397Z,12.03
2018-05-04T17:47:52.437Z,13.47
2018-05-04T17:50:54.771Z,13.07
2018-05-04T17:53:56.991Z,13.10
2018-05-04T17:56:59.033Z,14.50
2018-05-04T18:00:01.042Z,12.30
2018-05-04T18:03:03.629Z,12.57
2018-05-04T18:06:05.720Z,13.10
2018-05-04T18:09:08.493Z,12.03
2018-05-04T18:12:10.522Z,11.30
2018-05-04T18:15:12.544Z,11.23
2018-05-04T18:18:15.478Z,12.50
2018-05-04T18:21:17.446Z,13.80
2018-05-04T18:24:19.578Z,12.40
2018-05-04T18:27:22.343Z,12.37
2018-05-04T18:30:24.402Z,12.87
2018-05-04T18:33:26.612Z,16.80
2018-05-04T18:36:28.838Z,14.70
2018-05-04T18:39:30.831Z,14.83
2018-05-04T18:42:34.268Z,14.30
2018-05-04T18:45:36.285Z,16.43
2018-05-04T18:48:39.072Z,16.30
2018-05-04T18:51:41.072Z,17.40
2018-05-04T18:54:43.183Z,15.23
2018-05-04T18:57:45.210Z,14.90
2018-05-04T19:00:47.252Z,14.00
2018-05-04T19:03:49.435Z,13.20
2018-05-04T19:06:51.844Z,13.33
2018-05-04T19:09:53.889Z,14.10
2018-05-04T19:12:56.759Z,13.80
2018-05-04T19:15:58.883Z,15.00
2018-05-04T19:19:01.037Z,15.57
2018-05-04T19:22:03.268Z,15.30
2018-05-04T19:25:05.373Z,15.00
2018-05-04T19:28:07.392Z,17.07
2018-05-04T19:31:10.111Z,15.33
2018-05-04T19:34:12.100Z,14.47
2018-05-04T19:37:14.137Z,14.47
2018-05-04T19:40:16.164Z,13.83
2018-05-04T19:43:18.821Z,15.13
2018-05-04T19:46:21.111Z,16.80
2018-05-04T19:49:23.165Z,16.73
2018-05-04T19:52:25.395Z,16.57
2018-05-04T19:55:27.431Z,19.57
2018-05-04T19:58:29.451Z,17.33
2018-05-04T20:01:32.247Z,19.33
2018-05-04T20:04:34.321Z,18.67
2018-05-04T20:07:37.165Z,18.10
2018-05-04T20:10:39.396Z,17.17
2018-05-04T20:13:42.165Z,15.40
2018-05-04T20:16:44.198Z,16.47
2018-05-04T20:19:46.273Z,16.17
2018-05-04T20:22:48.314Z,16.13
2018-05-04T20:25:50.302Z,17.30
2018-05-04T20:28:52.349Z,16.67
2018-05-04T20:31:54.337Z,15.13
2018-05-04T20:34:56.367Z,15.70
2018-05-04T20:37:58.362Z,16.60
2018-05-04T20:41:01.454Z,15.20
2018-05-04T20:44:03.458Z,13.93
2018-05-04T20:47:06.275Z,13.60
2018-05-04T20:50:08.302Z,14.63
2018-05-04T20:53:10.413Z,14.87
2018-05-04T20:56:12.460Z,15.10
2018-05-04T20:59:14.717Z,16.03
2018-05-04T21:02:17.832Z,13.77
2018-05-04T21:05:19.826Z,12.50
2018-05-04T21:08:21.872Z,9.80
2018-05-04T21:11:25.382Z,9.43
2018-05-04T21:14:28.272Z,10.60
2018-05-04T21:17:31.098Z,9.03
2018-05-04T21:20:33.955Z,7.87
2018-05-04T21:23:36.793Z,8.90
2018-05-04T21:26:38.963Z,4.40
2018-05-04T21:29:41.442Z,4.37
2018-05-04T21:32:43.452Z,4.50
2018-05-04T21:35:46.238Z,3.23
2018-05-04T21:38:49.038Z,3.40
2018-05-04T21:41:51.114Z,3.90
2018-05-04T21:44:53.139Z,3.90
2018-05-04T21:47:55.218Z,3.60
2018-05-04T21:50:57.266Z,4.17
2018-05-04T21:54:00.634Z,4.40
2018-05-04T21:57:02.650Z,4.03
2018-05-04T22:00:05.361Z,4.80
2018-05-04T22:03:07.349Z,4.30
2018-05-04T22:06:09.386Z,4.50
2018-05-04T22:09:12.176Z,3.83
2018-05-04T22:12:14.189Z,4.63
2018-05-04T22:15:16.185Z,4.80
2018-05-04T22:18:18.195Z,4.77
2018-05-04T22:21:20.180Z,5.20
2018-05-04T22:24:22.201Z,5.03
2018-05-04T22:27:24.974Z,4.10
2018-05-04T22:30:26.977Z,6.00
2018-05-04T22:33:28.991Z,5.00
2018-05-04T22:36:30.991Z,5.37
2018-05-04T22:39:32.985Z,15.60
2018-05-04T22:42:34.973Z,4.90
2018-05-04T22:45:36.994Z,5.70
2018-05-04T22:48:39.009Z,5.30
2018-05-04T22:51:41.032Z,4.60
2018-05-04T22:54:43.012Z,4.33
2018-05-04T22:57:45.780Z,4.30
2018-05-04T23:00:47.886Z,4.53
2018-05-04T23:03:49.879Z,6.03
2018-05-04T23:06:51.863Z,5.80
2018-05-04T23:09:53.874Z,6.77
2018-05-04T23:12:55.898Z,6.00
2018-05-04T23:15:57.862Z,5.10
2018-05-04T23:19:00.559Z,4.20
2018-05-04T23:22:02.623Z,5.50
2018-05-04T23:25:04.622Z,5.50
2018-05-04T23:28:06.624Z,5.57
2018-05-04T23:31:08.635Z,4.57
2018-05-04T23:34:10.622Z,5.20
2018-05-04T23:37:12.614Z,4.80
2018-05-04T23:40:14.603Z,5.10
2018-05-04T23:43:16.570Z,4.83
2018-05-04T23:46:18.590Z,4.87
2018-05-04T23:49:20.992Z,4.50
2018-05-04T23:52:23.000Z,5.10
2018-05-04T23:55:25.363Z,5.13
2018-05-04T23:58:27.344Z,5.20
